sensor_id;sensor_type;location;lat;lon;timestamp;P1;durP1;ratioP1;P2;durP2;ratioP2
83690;SDS011;73671;43.220;0.064;2024-03-06T00:00:24;20.45;;;10.15;;
83690;SDS011;73671;43.220;0.064;2024-03-06T00:02:50;21.05;;;8.93;;
83690;SDS011;73671;43.220;0.064;2024-03-06T00:05:15;18.13;;;9.45;;
83690;SDS011;73671;43.220;0.064;2024-03-06T00:07:41;26.40;;;12.52;;
83690;SDS011;73671;43.220;0.064;2024-03-06T00:10:06;29.60;;;11.82;;
83690;SDS011;73671;43.220;0.064;2024-03-06T00:12:33;30.48;;;12.88;;
83690;SDS011;73671;43.220;0.064;2024-03-06T00:14:58;27.65;;;12.90;;
83690;SDS011;73671;43.220;0.064;2024-03-06T00:17:24;36.13;;;14.82;;
83690;SDS011;73671;43.220;0.064;2024-03-06T00:19:49;24.52;;;11.90;;
83690;SDS011;73671;43.220;0.064;2024-03-06T00:22:15;23.83;;;10.98;;
83690;SDS011;73671;43.220;0.064;2024-03-06T00:24:42;15.10;;;8.95;;
83690;SDS011;73671;43.220;0.064;2024-03-06T00:27:07;18.35;;;9.07;;
83690;SDS011;73671;43.220;0.064;2024-03-06T00:29:33;15.45;;;7.53;;
83690;SDS011;73671;43.220;0.064;2024-03-06T00:32:01;13.80;;;7.30;;
83690;SDS011;73671;43.220;0.064;2024-03-06T00:34:27;15.00;;;8.55;;
83690;SDS011;73671;43.220;0.064;2024-03-06T00:36:52;17.65;;;8.98;;
83690;SDS011;73671;43.220;0.064;2024-03-06T00:39:19;22.23;;;10.43;;
83690;SDS011;73671;43.220;0.064;2024-03-06T00:41:44;21.30;;;9.70;;
83690;SDS011;73671;43.220;0.064;2024-03-06T00:44:10;19.67;;;10.00;;
83690;SDS011;73671;43.220;0.064;2024-03-06T00:46:35;24.60;;;10.65;;
83690;SDS011;73671;43.220;0.064;2024-03-06T00:49:01;22.48;;;10.75;;
83690;SDS011;73671;43.220;0.064;2024-03-06T00:51:26;21.17;;;10.00;;
83690;SDS011;73671;43.220;0.064;2024-03-06T00:53:52;19.55;;;9.45;;
83690;SDS011;73671;43.220;0.064;2024-03-06T00:56:17;18.35;;;9.52;;
83690;SDS011;73671;43.220;0.064;2024-03-06T00:58:43;17.15;;;8.60;;
83690;SDS011;73671;43.220;0.064;2024-03-06T01:01:08;16.70;;;9.40;;
83690;SDS011;73671;43.220;0.064;2024-03-06T01:03:34;13.68;;;7.18;;
83690;SDS011;73671;43.220;0.064;2024-03-06T01:05:59;9.50;;;6.15;;
83690;SDS011;73671;43.220;0.064;2024-03-06T01:08:25;8.30;;;5.57;;
83690;SDS011;73671;43.220;0.064;2024-03-06T01:10:51;10.35;;;6.10;;
83690;SDS011;73671;43.220;0.064;2024-03-06T01:13:17;10.80;;;5.65;;
83690;SDS011;73671;43.220;0.064;2024-03-06T01:15:43;8.73;;;5.63;;
83690;SDS011;73671;43.220;0.064;2024-03-06T01:18:09;7.43;;;5.35;;
83690;SDS011;73671;43.220;0.064;2024-03-06T01:20:34;9.27;;;6.22;;
83690;SDS011;73671;43.220;0.064;2024-03-06T01:23:01;11.95;;;5.78;;
83690;SDS011;73671;43.220;0.064;2024-03-06T01:25:26;9.02;;;5.40;;
83690;SDS011;73671;43.220;0.064;2024-03-06T01:27:51;8.07;;;5.45;;
83690;SDS011;73671;43.220;0.064;2024-03-06T01:30:17;7.57;;;5.15;;
83690;SDS011;73671;43.220;0.064;2024-03-06T01:32:42;11.35;;;6.00;;
83690;SDS011;73671;43.220;0.064;2024-03-06T01:35:08;10.18;;;5.97;;
83690;SDS011;73671;43.220;0.064;2024-03-06T01:37:33;8.68;;;5.00;;
83690;SDS011;73671;43.220;0.064;2024-03-06T01:39:59;8.70;;;5.65;;
83690;SDS011;73671;43.220;0.064;2024-03-06T01:42:24;9.27;;;5.53;;
83690;SDS011;73671;43.220;0.064;2024-03-06T01:44:50;11.27;;;5.63;;
83690;SDS011;73671;43.220;0.064;2024-03-06T01:47:15;7.88;;;5.20;;
83690;SDS011;73671;43.220;0.064;2024-03-06T01:49:41;12.27;;;6.20;;
83690;SDS011;73671;43.220;0.064;2024-03-06T01:52:07;6.75;;;4.80;;
83690;SDS011;73671;43.220;0.064;2024-03-06T01:54:37;5.28;;;4.03;;
83690;SDS011;73671;43.220;0.064;2024-03-06T01:57:03;8.52;;;4.63;;
83690;SDS011;73671;43.220;0.064;2024-03-06T01:59:29;5.30;;;3.65;;
83690;SDS011;73671;43.220;0.064;2024-03-06T02:01:55;6.32;;;4.25;;
83690;SDS011;73671;43.220;0.064;2024-03-06T02:04:21;3.08;;;2.80;;
83690;SDS011;73671;43.220;0.064;2024-03-06T02:06:48;5.95;;;3.65;;
83690;SDS011;73671;43.220;0.064;2024-03-06T02:09:14;5.55;;;4.07;;
83690;SDS011;73671;43.220;0.064;2024-03-06T02:11:39;5.03;;;3.25;;
83690;SDS011;73671;43.220;0.064;2024-03-06T02:14:06;7.53;;;3.63;;
83690;SDS011;73671;43.220;0.064;2024-03-06T02:16:35;5.65;;;3.50;;
83690;SDS011;73671;43.220;0.064;2024-03-06T02:19:01;5.18;;;3.80;;
83690;SDS011;73671;43.220;0.064;2024-03-06T02:21:26;4.57;;;3.83;;
83690;SDS011;73671;43.220;0.064;2024-03-06T02:23:51;6.03;;;3.90;;
83690;SDS011;73671;43.220;0.064;2024-03-06T02:26:17;7.60;;;4.68;;
83690;SDS011;73671;43.220;0.064;2024-03-06T02:28:49;6.13;;;4.22;;
83690;SDS011;73671;43.220;0.064;2024-03-06T02:31:16;7.03;;;4.00;;
83690;SDS011;73671;43.220;0.064;2024-03-06T02:33:42;6.20;;;3.75;;
83690;SDS011;73671;43.220;0.064;2024-03-06T02:36:09;5.28;;;3.60;;
83690;SDS011;73671;43.220;0.064;2024-03-06T02:38:38;4.95;;;3.97;;
83690;SDS011;73671;43.220;0.064;2024-03-06T02:41:03;5.63;;;3.70;;
83690;SDS011;73671;43.220;0.064;2024-03-06T02:43:31;9.27;;;4.32;;
83690;SDS011;73671;43.220;0.064;2024-03-06T02:45:57;6.30;;;4.10;;
83690;SDS011;73671;43.220;0.064;2024-03-06T02:48:23;4.60;;;3.50;;
83690;SDS011;73671;43.220;0.064;2024-03-06T02:50:48;7.03;;;4.40;;
83690;SDS011;73671;43.220;0.064;2024-03-06T02:53:14;5.75;;;3.80;;
83690;SDS011;73671;43.220;0.064;2024-03-06T02:55:39;7.50;;;4.00;;
83690;SDS011;73671;43.220;0.064;2024-03-06T02:58:05;5.43;;;3.72;;
83690;SDS011;73671;43.220;0.064;2024-03-06T03:00:30;4.53;;;3.80;;
83690;SDS011;73671;43.220;0.064;2024-03-06T03:02:56;4.78;;;3.50;;
83690;SDS011;73671;43.220;0.064;2024-03-06T03:05:22;3.95;;;3.22;;
83690;SDS011;73671;43.220;0.064;2024-03-06T03:07:48;7.43;;;3.78;;
83690;SDS011;73671;43.220;0.064;2024-03-06T03:10:14;10.27;;;3.60;;
83690;SDS011;73671;43.220;0.064;2024-03-06T03:12:39;5.03;;;3.20;;
83690;SDS011;73671;43.220;0.064;2024-03-06T03:15:05;5.43;;;3.35;;
83690;SDS011;73671;43.220;0.064;2024-03-06T03:17:31;5.50;;;3.50;;
83690;SDS011;73671;43.220;0.064;2024-03-06T03:19:58;5.78;;;3.75;;
83690;SDS011;73671;43.220;0.064;2024-03-06T03:22:24;6.65;;;3.67;;
83690;SDS011;73671;43.220;0.064;2024-03-06T03:24:49;6.15;;;3.45;;
83690;SDS011;73671;43.220;0.064;2024-03-06T03:27:15;5.80;;;3.70;;
83690;SDS011;73671;43.220;0.064;2024-03-06T03:29:40;5.55;;;3.40;;
83690;SDS011;73671;43.220;0.064;2024-03-06T03:32:06;4.20;;;3.50;;
83690;SDS011;73671;43.220;0.064;2024-03-06T03:34:34;4.28;;;3.38;;
83690;SDS011;73671;43.220;0.064;2024-03-06T03:37:00;6.80;;;3.35;;
83690;SDS011;73671;43.220;0.064;2024-03-06T03:39:26;4.18;;;3.17;;
83690;SDS011;73671;43.220;0.064;2024-03-06T03:41:52;4.60;;;3.15;;
83690;SDS011;73671;43.220;0.064;2024-03-06T03:44:18;5.88;;;3.25;;
83690;SDS011;73671;43.220;0.064;2024-03-06T03:46:44;5.00;;;3.42;;
83690;SDS011;73671;43.220;0.064;2024-03-06T03:49:09;5.22;;;3.53;;
83690;SDS011;73671;43.220;0.064;2024-03-06T03:51:38;6.30;;;3.00;;
83690;SDS011;73671;43.220;0.064;2024-03-06T03:54:04;4.95;;;3.25;;
83690;SDS011;73671;43.220;0.064;2024-03-06T03:56:30;6.00;;;3.25;;
83690;SDS011;73671;43.220;0.064;2024-03-06T03:58:56;3.45;;;2.90;;
83690;SDS011;73671;43.220;0.064;2024-03-06T04:01:23;6.53;;;2.70;;
83690;SDS011;73671;43.220;0.064;2024-03-06T04:03:48;3.38;;;2.65;;
83690;SDS011;73671;43.220;0.064;2024-03-06T04:06:14;3.13;;;2.88;;
83690;SDS011;73671;43.220;0.064;2024-03-06T04:08:39;3.55;;;2.95;;
83690;SDS011;73671;43.220;0.064;2024-03-06T04:11:06;6.45;;;2.60;;
83690;SDS011;73671;43.220;0.064;2024-03-06T04:13:34;4.88;;;2.78;;
83690;SDS011;73671;43.220;0.064;2024-03-06T04:16:01;2.50;;;2.30;;
83690;SDS011;73671;43.220;0.064;2024-03-06T04:18:27;2.70;;;2.50;;
83690;SDS011;73671;43.220;0.064;2024-03-06T04:20:53;4.40;;;2.17;;
83690;SDS011;73671;43.220;0.064;2024-03-06T04:23:19;2.60;;;2.40;;
83690;SDS011;73671;43.220;0.064;2024-03-06T04:25:44;2.65;;;2.25;;
83690;SDS011;73671;43.220;0.064;2024-03-06T04:28:10;2.75;;;1.95;;
83690;SDS011;73671;43.220;0.064;2024-03-06T04:30:35;2.15;;;2.05;;
83690;SDS011;73671;43.220;0.064;2024-03-06T04:33:01;2.20;;;2.10;;
83690;SDS011;73671;43.220;0.064;2024-03-06T04:35:26;2.20;;;2.10;;
83690;SDS011;73671;43.220;0.064;2024-03-06T04:37:51;2.00;;;1.90;;
83690;SDS011;73671;43.220;0.064;2024-03-06T04:40:17;2.10;;;2.00;;
83690;SDS011;73671;43.220;0.064;2024-03-06T04:42:48;2.30;;;2.10;;
83690;SDS011;73671;43.220;0.064;2024-03-06T04:45:17;2.30;;;2.10;;
83690;SDS011;73671;43.220;0.064;2024-03-06T04:47:43;2.50;;;2.30;;
83690;SDS011;73671;43.220;0.064;2024-03-06T04:50:09;4.82;;;2.33;;
83690;SDS011;73671;43.220;0.064;2024-03-06T04:52:36;4.97;;;2.35;;
83690;SDS011;73671;43.220;0.064;2024-03-06T04:55:01;2.67;;;2.20;;
83690;SDS011;73671;43.220;0.064;2024-03-06T04:57:28;3.75;;;2.42;;
83690;SDS011;73671;43.220;0.064;2024-03-06T04:59:53;4.07;;;2.33;;
83690;SDS011;73671;43.220;0.064;2024-03-06T05:02:18;3.08;;;2.30;;
83690;SDS011;73671;43.220;0.064;2024-03-06T05:04:44;2.33;;;2.13;;
83690;SDS011;73671;43.220;0.064;2024-03-06T05:07:09;2.88;;;2.22;;
83690;SDS011;73671;43.220;0.064;2024-03-06T05:09:35;2.28;;;2.17;;
83690;SDS011;73671;43.220;0.064;2024-03-06T05:12:00;2.47;;;2.30;;
83690;SDS011;73671;43.220;0.064;2024-03-06T05:14:26;2.42;;;2.22;;
83690;SDS011;73671;43.220;0.064;2024-03-06T05:16:51;2.92;;;2.42;;
83690;SDS011;73671;43.220;0.064;2024-03-06T05:19:18;2.40;;;2.17;;
83690;SDS011;73671;43.220;0.064;2024-03-06T05:21:43;2.00;;;1.90;;
83690;SDS011;73671;43.220;0.064;2024-03-06T05:24:09;1.90;;;1.80;;
83690;SDS011;73671;43.220;0.064;2024-03-06T05:26:34;2.55;;;1.90;;
83690;SDS011;73671;43.220;0.064;2024-03-06T05:28:59;5.97;;;2.00;;
83690;SDS011;73671;43.220;0.064;2024-03-06T05:31:25;2.10;;;1.90;;
83690;SDS011;73671;43.220;0.064;2024-03-06T05:33:50;2.47;;;2.13;;
83690;SDS011;73671;43.220;0.064;2024-03-06T05:36:16;1.90;;;1.80;;
83690;SDS011;73671;43.220;0.064;2024-03-06T05:38:42;1.83;;;1.73;;
83690;SDS011;73671;43.220;0.064;2024-03-06T05:41:08;1.80;;;1.70;;
83690;SDS011;73671;43.220;0.064;2024-03-06T05:43:34;2.20;;;2.00;;
83690;SDS011;73671;43.220;0.064;2024-03-06T05:45:59;1.90;;;1.80;;
83690;SDS011;73671;43.220;0.064;2024-03-06T05:48:25;4.35;;;2.20;;
83690;SDS011;73671;43.220;0.064;2024-03-06T05:50:51;2.13;;;2.03;;
83690;SDS011;73671;43.220;0.064;2024-03-06T05:53:17;2.60;;;2.40;;
83690;SDS011;73671;43.220;0.064;2024-03-06T05:55:42;2.28;;;2.08;;
83690;SDS011;73671;43.220;0.064;2024-03-06T05:58:08;4.43;;;1.80;;
83690;SDS011;73671;43.220;0.064;2024-03-06T06:00:33;4.72;;;2.03;;
83690;SDS011;73671;43.220;0.064;2024-03-06T06:02:58;5.00;;;2.47;;
83690;SDS011;73671;43.220;0.064;2024-03-06T06:05:24;4.30;;;2.10;;
83690;SDS011;73671;43.220;0.064;2024-03-06T06:07:50;2.30;;;2.10;;
83690;SDS011;73671;43.220;0.064;2024-03-06T06:10:16;3.05;;;2.00;;
83690;SDS011;73671;43.220;0.064;2024-03-06T06:12:41;2.53;;;2.00;;
83690;SDS011;73671;43.220;0.064;2024-03-06T06:15:07;2.17;;;2.08;;
83690;SDS011;73671;43.220;0.064;2024-03-06T06:17:33;3.35;;;2.00;;
83690;SDS011;73671;43.220;0.064;2024-03-06T06:19:59;2.20;;;2.00;;
83690;SDS011;73671;43.220;0.064;2024-03-06T06:22:26;2.83;;;2.15;;
83690;SDS011;73671;43.220;0.064;2024-03-06T06:24:52;4.35;;;1.95;;
83690;SDS011;73671;43.220;0.064;2024-03-06T06:27:20;1.98;;;1.88;;
83690;SDS011;73671;43.220;0.064;2024-03-06T06:29:45;4.82;;;2.22;;
83690;SDS011;73671;43.220;0.064;2024-03-06T06:32:11;2.60;;;1.80;;
83690;SDS011;73671;43.220;0.064;2024-03-06T06:34:36;2.00;;;1.90;;
83690;SDS011;73671;43.220;0.064;2024-03-06T06:37:01;2.03;;;1.92;;
83690;SDS011;73671;43.220;0.064;2024-03-06T06:39:27;2.20;;;2.03;;
83690;SDS011;73671;43.220;0.064;2024-03-06T06:41:52;2.20;;;2.00;;
83690;SDS011;73671;43.220;0.064;2024-03-06T06:44:18;2.45;;;1.95;;
83690;SDS011;73671;43.220;0.064;2024-03-06T06:46:43;1.98;;;1.80;;
83690;SDS011;73671;43.220;0.064;2024-03-06T06:49:09;3.17;;;1.90;;
83690;SDS011;73671;43.220;0.064;2024-03-06T06:51:34;4.18;;;2.28;;
83690;SDS011;73671;43.220;0.064;2024-03-06T06:54:00;2.55;;;2.30;;
83690;SDS011;73671;43.220;0.064;2024-03-06T06:56:26;2.60;;;2.20;;
83690;SDS011;73671;43.220;0.064;2024-03-06T06:58:52;6.35;;;4.53;;
83690;SDS011;73671;43.220;0.064;2024-03-06T07:01:18;6.30;;;4.00;;
83690;SDS011;73671;43.220;0.064;2024-03-06T07:03:43;5.63;;;3.60;;
83690;SDS011;73671;43.220;0.064;2024-03-06T07:06:09;6.20;;;2.95;;
83690;SDS011;73671;43.220;0.064;2024-03-06T07:08:36;5.68;;;3.60;;
83690;SDS011;73671;43.220;0.064;2024-03-06T07:11:02;5.50;;;4.35;;
83690;SDS011;73671;43.220;0.064;2024-03-06T07:13:28;7.00;;;3.97;;
83690;SDS011;73671;43.220;0.064;2024-03-06T07:15:53;8.38;;;5.45;;
83690;SDS011;73671;43.220;0.064;2024-03-06T07:18:19;15.73;;;5.90;;
83690;SDS011;73671;43.220;0.064;2024-03-06T07:20:44;13.93;;;6.25;;
83690;SDS011;73671;43.220;0.064;2024-03-06T07:23:10;10.20;;;5.60;;
83690;SDS011;73671;43.220;0.064;2024-03-06T07:25:36;9.30;;;5.13;;
83690;SDS011;73671;43.220;0.064;2024-03-06T07:28:01;8.15;;;5.30;;
83690;SDS011;73671;43.220;0.064;2024-03-06T07:30:27;9.40;;;4.78;;
83690;SDS011;73671;43.220;0.064;2024-03-06T07:32:54;8.90;;;5.20;;
83690;SDS011;73671;43.220;0.064;2024-03-06T07:35:20;7.65;;;4.85;;
83690;SDS011;73671;43.220;0.064;2024-03-06T07:37:45;11.35;;;6.40;;
83690;SDS011;73671;43.220;0.064;2024-03-06T07:40:12;13.38;;;8.85;;
83690;SDS011;73671;43.220;0.064;2024-03-06T07:42:37;14.60;;;8.20;;
83690;SDS011;73671;43.220;0.064;2024-03-06T07:45:03;11.60;;;7.07;;
83690;SDS011;73671;43.220;0.064;2024-03-06T07:47:30;13.68;;;6.40;;
83690;SDS011;73671;43.220;0.064;2024-03-06T07:49:55;11.23;;;5.90;;
83690;SDS011;73671;43.220;0.064;2024-03-06T07:52:21;9.48;;;5.72;;
83690;SDS011;73671;43.220;0.064;2024-03-06T07:54:46;8.02;;;5.28;;
83690;SDS011;73671;43.220;0.064;2024-03-06T07:57:12;11.73;;;5.28;;
83690;SDS011;73671;43.220;0.064;2024-03-06T07:59:37;9.35;;;5.07;;
83690;SDS011;73671;43.220;0.064;2024-03-06T08:02:03;9.80;;;4.63;;
83690;SDS011;73671;43.220;0.064;2024-03-06T08:04:29;9.82;;;4.40;;
83690;SDS011;73671;43.220;0.064;2024-03-06T08:06:55;7.47;;;4.13;;
83690;SDS011;73671;43.220;0.064;2024-03-06T08:09:20;6.78;;;3.40;;
83690;SDS011;73671;43.220;0.064;2024-03-06T08:11:46;5.10;;;3.50;;
83690;SDS011;73671;43.220;0.064;2024-03-06T08:14:11;5.60;;;3.20;;
83690;SDS011;73671;43.220;0.064;2024-03-06T08:16:37;5.70;;;3.03;;
83690;SDS011;73671;43.220;0.064;2024-03-06T08:19:02;3.33;;;2.13;;
83690;SDS011;73671;43.220;0.064;2024-03-06T08:21:28;9.00;;;5.00;;
83690;SDS011;73671;43.220;0.064;2024-03-06T08:23:54;10.15;;;5.30;;
83690;SDS011;73671;43.220;0.064;2024-03-06T08:26:19;8.85;;;4.13;;
83690;SDS011;73671;43.220;0.064;2024-03-06T08:28:44;5.25;;;3.45;;
83690;SDS011;73671;43.220;0.064;2024-03-06T08:31:10;4.45;;;2.90;;
83690;SDS011;73671;43.220;0.064;2024-03-06T08:33:35;6.10;;;3.13;;
83690;SDS011;73671;43.220;0.064;2024-03-06T08:36:01;4.78;;;2.92;;
83690;SDS011;73671;43.220;0.064;2024-03-06T08:38:27;4.93;;;2.97;;
83690;SDS011;73671;43.220;0.064;2024-03-06T08:40:52;3.70;;;2.25;;
83690;SDS011;73671;43.220;0.064;2024-03-06T08:43:18;4.72;;;2.20;;
83690;SDS011;73671;43.220;0.064;2024-03-06T08:45:44;3.35;;;2.22;;
83690;SDS011;73671;43.220;0.064;2024-03-06T08:48:10;3.42;;;2.47;;
83690;SDS011;73671;43.220;0.064;2024-03-06T08:50:36;4.32;;;2.92;;
83690;SDS011;73671;43.220;0.064;2024-03-06T08:53:02;6.32;;;2.58;;
83690;SDS011;73671;43.220;0.064;2024-03-06T08:55:27;2.33;;;1.80;;
83690;SDS011;73671;43.220;0.064;2024-03-06T08:57:56;2.25;;;1.83;;
83690;SDS011;73671;43.220;0.064;2024-03-06T09:00:21;2.85;;;1.60;;
83690;SDS011;73671;43.220;0.064;2024-03-06T09:02:47;2.83;;;2.05;;
83690;SDS011;73671;43.220;0.064;2024-03-06T09:05:12;2.03;;;1.80;;
83690;SDS011;73671;43.220;0.064;2024-03-06T09:07:38;2.38;;;1.58;;
83690;SDS011;73671;43.220;0.064;2024-03-06T09:10:14;2.20;;;1.58;;
83690;SDS011;73671;43.220;0.064;2024-03-06T09:12:40;3.33;;;1.20;;
83690;SDS011;73671;43.220;0.064;2024-03-06T09:15:06;1.67;;;1.23;;
83690;SDS011;73671;43.220;0.064;2024-03-06T09:17:36;2.53;;;1.70;;
83690;SDS011;73671;43.220;0.064;2024-03-06T09:20:02;4.15;;;1.23;;
83690;SDS011;73671;43.220;0.064;2024-03-06T09:22:49;2.15;;;0.90;;
83690;SDS011;73671;43.220;0.064;2024-03-06T09:25:14;1.98;;;0.95;;
83690;SDS011;73671;43.220;0.064;2024-03-06T09:27:40;2.58;;;1.05;;
83690;SDS011;73671;43.220;0.064;2024-03-06T09:30:05;1.52;;;1.08;;
83690;SDS011;73671;43.220;0.064;2024-03-06T09:32:31;2.15;;;0.90;;
83690;SDS011;73671;43.220;0.064;2024-03-06T09:34:57;2.63;;;1.00;;
83690;SDS011;73671;43.220;0.064;2024-03-06T09:37:23;1.58;;;0.65;;
83690;SDS011;73671;43.220;0.064;2024-03-06T09:39:49;3.13;;;0.88;;
83690;SDS011;73671;43.220;0.064;2024-03-06T09:42:15;1.25;;;0.88;;
83690;SDS011;73671;43.220;0.064;2024-03-06T09:44:40;1.60;;;0.70;;
83690;SDS011;73671;43.220;0.064;2024-03-06T09:47:06;3.95;;;0.90;;
83690;SDS011;73671;43.220;0.064;2024-03-06T09:49:32;1.83;;;0.88;;
83690;SDS011;73671;43.220;0.064;2024-03-06T09:51:59;1.27;;;0.70;;
83690;SDS011;73671;43.220;0.064;2024-03-06T09:54:25;3.13;;;0.80;;
83690;SDS011;73671;43.220;0.064;2024-03-06T09:56:51;1.58;;;0.80;;
83690;SDS011;73671;43.220;0.064;2024-03-06T09:59:17;2.60;;;0.90;;
83690;SDS011;73671;43.220;0.064;2024-03-06T10:04:21;2.47;;;0.82;;
83690;SDS011;73671;43.220;0.064;2024-03-06T10:06:47;2.70;;;0.60;;
83690;SDS011;73671;43.220;0.064;2024-03-06T10:09:17;1.90;;;0.90;;
83690;SDS011;73671;43.220;0.064;2024-03-06T10:11:43;1.52;;;0.55;;
83690;SDS011;73671;43.220;0.064;2024-03-06T10:14:09;2.20;;;0.90;;
83690;SDS011;73671;43.220;0.064;2024-03-06T10:16:36;1.35;;;0.70;;
83690;SDS011;73671;43.220;0.064;2024-03-06T10:19:17;5.32;;;0.90;;
83690;SDS011;73671;43.220;0.064;2024-03-06T10:21:44;1.38;;;0.73;;
83690;SDS011;73671;43.220;0.064;2024-03-06T10:24:16;3.42;;;1.08;;
83690;SDS011;73671;43.220;0.064;2024-03-06T10:26:43;5.18;;;0.75;;
83690;SDS011;73671;43.220;0.064;2024-03-06T10:29:09;2.58;;;0.80;;
83690;SDS011;73671;43.220;0.064;2024-03-06T10:31:34;2.65;;;0.82;;
83690;SDS011;73671;43.220;0.064;2024-03-06T10:33:59;2.38;;;1.05;;
83690;SDS011;73671;43.220;0.064;2024-03-06T10:36:31;1.88;;;0.80;;
83690;SDS011;73671;43.220;0.064;2024-03-06T10:38:57;1.98;;;0.80;;
83690;SDS011;73671;43.220;0.064;2024-03-06T10:41:26;3.55;;;0.77;;
83690;SDS011;73671;43.220;0.064;2024-03-06T10:43:57;1.85;;;1.00;;
83690;SDS011;73671;43.220;0.064;2024-03-06T10:46:24;2.97;;;0.88;;
83690;SDS011;73671;43.220;0.064;2024-03-06T10:48:53;2.15;;;0.70;;
83690;SDS011;73671;43.220;0.064;2024-03-06T10:51:23;4.15;;;0.95;;
83690;SDS011;73671;43.220;0.064;2024-03-06T10:53:50;3.70;;;1.00;;
83690;SDS011;73671;43.220;0.064;2024-03-06T10:56:16;1.77;;;0.90;;
83690;SDS011;73671;43.220;0.064;2024-03-06T10:58:44;2.75;;;0.95;;
83690;SDS011;73671;43.220;0.064;2024-03-06T11:01:15;3.63;;;0.90;;
83690;SDS011;73671;43.220;0.064;2024-03-06T11:03:42;2.30;;;0.95;;
83690;SDS011;73671;43.220;0.064;2024-03-06T11:06:07;4.40;;;0.90;;
83690;SDS011;73671;43.220;0.064;2024-03-06T11:08:33;2.58;;;0.90;;
83690;SDS011;73671;43.220;0.064;2024-03-06T11:11:18;3.95;;;1.05;;
83690;SDS011;73671;43.220;0.064;2024-03-06T11:13:48;2.10;;;0.90;;
83690;SDS011;73671;43.220;0.064;2024-03-06T11:16:14;3.53;;;1.52;;
83690;SDS011;73671;43.220;0.064;2024-03-06T11:23:33;5.13;;;1.10;;
83690;SDS011;73671;43.220;0.064;2024-03-06T11:26:05;0.68;;;0.60;;
83690;SDS011;73671;43.220;0.064;2024-03-06T11:31:06;3.03;;;1.00;;
83690;SDS011;73671;43.220;0.064;2024-03-06T11:36:22;2.47;;;0.80;;
83690;SDS011;73671;43.220;0.064;2024-03-06T11:41:23;1.48;;;0.60;;
83690;SDS011;73671;43.220;0.064;2024-03-06T11:43:53;6.05;;;0.80;;
83690;SDS011;73671;43.220;0.064;2024-03-06T11:46:20;3.28;;;0.80;;
83690;SDS011;73671;43.220;0.064;2024-03-06T11:48:56;2.53;;;0.70;;
83690;SDS011;73671;43.220;0.064;2024-03-06T11:51:22;4.55;;;0.88;;
83690;SDS011;73671;43.220;0.064;2024-03-06T11:53:51;3.72;;;0.80;;
83690;SDS011;73671;43.220;0.064;2024-03-06T11:56:18;3.55;;;0.90;;
83690;SDS011;73671;43.220;0.064;2024-03-06T11:58:45;1.65;;;0.80;;
83690;SDS011;73671;43.220;0.064;2024-03-06T12:01:11;3.45;;;0.80;;
83690;SDS011;73671;43.220;0.064;2024-03-06T12:03:37;2.22;;;0.63;;
83690;SDS011;73671;43.220;0.064;2024-03-06T12:06:02;1.95;;;0.70;;
83690;SDS011;73671;43.220;0.064;2024-03-06T12:08:28;5.07;;;0.85;;
83690;SDS011;73671;43.220;0.064;2024-03-06T12:10:53;2.28;;;0.73;;
83690;SDS011;73671;43.220;0.064;2024-03-06T12:13:23;1.88;;;0.57;;
83690;SDS011;73671;43.220;0.064;2024-03-06T12:15:49;1.02;;;0.70;;
83690;SDS011;73671;43.220;0.064;2024-03-06T12:18:16;2.97;;;0.90;;
83690;SDS011;73671;43.220;0.064;2024-03-06T12:20:43;2.40;;;0.70;;
83690;SDS011;73671;43.220;0.064;2024-03-06T12:23:18;2.00;;;0.63;;
83690;SDS011;73671;43.220;0.064;2024-03-06T12:25:45;1.77;;;0.82;;
83690;SDS011;73671;43.220;0.064;2024-03-06T12:28:10;3.72;;;1.00;;
83690;SDS011;73671;43.220;0.064;2024-03-06T12:30:42;3.40;;;0.80;;
83690;SDS011;73671;43.220;0.064;2024-03-06T12:33:09;1.92;;;0.80;;
83690;SDS011;73671;43.220;0.064;2024-03-06T12:35:36;2.15;;;0.85;;
83690;SDS011;73671;43.220;0.064;2024-03-06T12:38:11;1.10;;;0.73;;
83690;SDS011;73671;43.220;0.064;2024-03-06T12:40:40;3.35;;;0.80;;
83690;SDS011;73671;43.220;0.064;2024-03-06T12:43:09;2.08;;;0.65;;
83690;SDS011;73671;43.220;0.064;2024-03-06T12:45:35;3.70;;;0.63;;
83690;SDS011;73671;43.220;0.064;2024-03-06T12:48:02;3.30;;;1.08;;
83690;SDS011;73671;43.220;0.064;2024-03-06T12:50:28;3.08;;;0.90;;
83690;SDS011;73671;43.220;0.064;2024-03-06T12:52:53;3.90;;;0.95;;
83690;SDS011;73671;43.220;0.064;2024-03-06T12:55:19;4.00;;;0.77;;
83690;SDS011;73671;43.220;0.064;2024-03-06T12:57:44;3.72;;;0.70;;
83690;SDS011;73671;43.220;0.064;2024-03-06T13:00:11;0.90;;;0.65;;
83690;SDS011;73671;43.220;0.064;2024-03-06T13:02:44;4.35;;;0.93;;
83690;SDS011;73671;43.220;0.064;2024-03-06T13:05:11;2.13;;;0.55;;
83690;SDS011;73671;43.220;0.064;2024-03-06T13:07:36;3.17;;;0.80;;
83690;SDS011;73671;43.220;0.064;2024-03-06T13:10:02;1.33;;;0.70;;
83690;SDS011;73671;43.220;0.064;2024-03-06T13:12:28;2.25;;;0.70;;
83690;SDS011;73671;43.220;0.064;2024-03-06T13:14:54;2.97;;;0.80;;
83690;SDS011;73671;43.220;0.064;2024-03-06T13:17:19;2.97;;;1.00;;
83690;SDS011;73671;43.220;0.064;2024-03-06T13:19:45;1.50;;;0.85;;
83690;SDS011;73671;43.220;0.064;2024-03-06T13:22:11;3.15;;;0.88;;
83690;SDS011;73671;43.220;0.064;2024-03-06T13:24:36;1.20;;;0.55;;
83690;SDS011;73671;43.220;0.064;2024-03-06T13:27:03;6.82;;;0.98;;
83690;SDS011;73671;43.220;0.064;2024-03-06T13:29:28;3.63;;;0.80;;
83690;SDS011;73671;43.220;0.064;2024-03-06T13:31:54;3.58;;;0.70;;
83690;SDS011;73671;43.220;0.064;2024-03-06T13:34:19;3.63;;;1.13;;
83690;SDS011;73671;43.220;0.064;2024-03-06T13:36:44;2.00;;;0.85;;
83690;SDS011;73671;43.220;0.064;2024-03-06T13:39:10;4.97;;;1.40;;
83690;SDS011;73671;43.220;0.064;2024-03-06T13:41:35;2.97;;;1.65;;
83690;SDS011;73671;43.220;0.064;2024-03-06T13:44:00;3.53;;;0.93;;
83690;SDS011;73671;43.220;0.064;2024-03-06T13:46:26;1.77;;;0.60;;
83690;SDS011;73671;43.220;0.064;2024-03-06T13:48:51;1.52;;;0.90;;
83690;SDS011;73671;43.220;0.064;2024-03-06T13:51:17;1.88;;;0.70;;
83690;SDS011;73671;43.220;0.064;2024-03-06T13:53:42;1.75;;;0.60;;
83690;SDS011;73671;43.220;0.064;2024-03-06T13:56:07;2.47;;;1.08;;
83690;SDS011;73671;43.220;0.064;2024-03-06T13:58:33;3.15;;;0.85;;
83690;SDS011;73671;43.220;0.064;2024-03-06T14:00:59;3.70;;;0.95;;
83690;SDS011;73671;43.220;0.064;2024-03-06T14:03:24;1.77;;;0.88;;
83690;SDS011;73671;43.220;0.064;2024-03-06T14:05:50;2.10;;;1.00;;
83690;SDS011;73671;43.220;0.064;2024-03-06T14:08:16;2.42;;;0.80;;
83690;SDS011;73671;43.220;0.064;2024-03-06T14:10:42;3.60;;;0.82;;
83690;SDS011;73671;43.220;0.064;2024-03-06T14:13:07;1.40;;;0.60;;
83690;SDS011;73671;43.220;0.064;2024-03-06T14:15:33;3.63;;;0.95;;
83690;SDS011;73671;43.220;0.064;2024-03-06T14:18:02;2.35;;;0.80;;
83690;SDS011;73671;43.220;0.064;2024-03-06T14:20:29;3.10;;;1.40;;
83690;SDS011;73671;43.220;0.064;2024-03-06T14:22:54;3.53;;;0.95;;
83690;SDS011;73671;43.220;0.064;2024-03-06T14:25:20;1.20;;;0.70;;
83690;SDS011;73671;43.220;0.064;2024-03-06T14:27:46;3.38;;;0.80;;
83690;SDS011;73671;43.220;0.064;2024-03-06T14:30:12;5.80;;;0.90;;
83690;SDS011;73671;43.220;0.064;2024-03-06T14:32:38;1.40;;;0.90;;
83690;SDS011;73671;43.220;0.064;2024-03-06T14:35:04;0.68;;;0.60;;
83690;SDS011;73671;43.220;0.064;2024-03-06T14:37:29;1.67;;;0.90;;
83690;SDS011;73671;43.220;0.064;2024-03-06T14:39:55;2.17;;;0.90;;
83690;SDS011;73671;43.220;0.064;2024-03-06T14:42:20;2.35;;;0.80;;
83690;SDS011;73671;43.220;0.064;2024-03-06T14:44:46;1.23;;;1.10;;
83690;SDS011;73671;43.220;0.064;2024-03-06T14:47:12;2.47;;;0.75;;
83690;SDS011;73671;43.220;0.064;2024-03-06T14:49:37;3.83;;;1.20;;
83690;SDS011;73671;43.220;0.064;2024-03-06T14:52:05;2.72;;;0.80;;
83690;SDS011;73671;43.220;0.064;2024-03-06T14:54:31;2.22;;;0.93;;